createdAt,value
2023-01-01T00:00:43.896Z,14.25
2023-01-01T00:05:45.589Z,20.35
2023-01-01T00:10:47.470Z,19.25
2023-01-01T00:15:49.184Z,23.15
2023-01-01T00:20:50.892Z,22.20
2023-01-01T00:25:52.563Z,14.13
2023-01-01T00:30:55.077Z,15.82
2023-01-01T00:35:56.840Z,15.10
2023-01-01T00:40:58.515Z,11.82
2023-01-01T00:46:00.243Z,13.95
2023-01-01T00:51:02.458Z,14.10
2023-01-01T00:56:04.752Z,15.25
2023-01-01T01:01:06.602Z,12.55
2023-01-01T01:06:10.263Z,10.90
2023-01-01T01:11:23.555Z,14.17
2023-01-01T01:16:32.310Z,9.82
2023-01-01T01:21:34.619Z,8.02
2023-01-01T01:26:36.888Z,9.43
2023-01-01T01:31:38.610Z,6.15
2023-01-01T01:36:40.333Z,4.43
2023-01-01T01:41:41.988Z,3.95
2023-01-01T01:46:45.827Z,3.30
2023-01-01T01:51:48.328Z,3.67
2023-01-01T01:56:55.369Z,2.80
2023-01-01T02:01:57.614Z,3.38
2023-01-01T02:06:59.954Z,3.28
2023-01-01T02:12:01.626Z,4.32
2023-01-01T02:17:12.144Z,4.35
2023-01-01T02:22:32.986Z,2.88
2023-01-01T02:27:48.645Z,3.58
2023-01-01T02:32:56.213Z,5.88
2023-01-01T02:38:09.945Z,2.97
2023-01-01T02:43:11.729Z,4.13
2023-01-01T02:48:35.452Z,4.78
2023-01-01T02:53:48.654Z,3.42
2023-01-01T02:59:39.187Z,6.82
2023-01-01T03:05:00.151Z,4.00
2023-01-01T03:10:01.937Z,4.20
2023-01-01T03:15:10.807Z,5.70
2023-01-01T03:20:19.112Z,4.43
2023-01-01T03:25:32.426Z,6.32
2023-01-01T03:30:37.614Z,4.15
2023-01-01T03:35:54.016Z,4.47
2023-01-01T03:41:02.093Z,3.53
2023-01-01T03:46:04.924Z,4.32
2023-01-01T03:51:19.041Z,3.95
2023-01-01T03:56:35.796Z,5.00
2023-01-01T04:01:46.819Z,5.43
2023-01-01T04:06:48.870Z,5.07
2023-01-01T04:12:04.060Z,2.38
2023-01-01T04:17:07.957Z,5.05
2023-01-01T04:22:10.132Z,3.30
2023-01-01T04:27:11.871Z,6.45
2023-01-01T04:32:13.673Z,2.67
2023-01-01T04:37:15.667Z,9.23
2023-01-01T04:42:17.441Z,4.45
2023-01-01T04:47:19.204Z,3.22
2023-01-01T04:52:21.484Z,1.88
2023-01-01T04:57:23.228Z,4.40
2023-01-01T05:02:25.717Z,4.53
2023-01-01T05:07:27.483Z,5.13
2023-01-01T05:12:30.130Z,2.00
2023-01-01T05:17:31.729Z,4.75
2023-01-01T05:22:33.424Z,5.03
2023-01-01T05:27:35.152Z,5.55
2023-01-01T05:32:37.906Z,3.17
2023-01-01T05:37:39.594Z,7.13
2023-01-01T05:42:41.220Z,4.28
2023-01-01T05:47:42.981Z,3.65
2023-01-01T05:52:44.676Z,4.18
2023-01-01T05:57:46.325Z,3.90
2023-01-01T06:02:49.876Z,4.32
2023-01-01T06:07:51.707Z,3.17
2023-01-01T06:12:58.666Z,5.60
2023-01-01T06:18:00.400Z,6.03
2023-01-01T06:23:02.164Z,4.68
2023-01-01T06:28:04.091Z,5.35
2023-01-01T06:33:05.929Z,2.33
2023-01-01T06:38:07.765Z,3.67
2023-01-01T06:43:09.441Z,4.10
2023-01-01T06:48:11.200Z,5.13
2023-01-01T06:53:12.943Z,4.40
2023-01-01T06:58:14.718Z,5.88
2023-01-01T07:03:16.404Z,3.92
2023-01-01T07:08:18.063Z,4.65
2023-01-01T07:13:19.783Z,3.75
2023-01-01T07:18:23.160Z,4.65
2023-01-01T07:23:26.509Z,5.13
2023-01-01T07:28:28.318Z,4.57
2023-01-01T07:33:30.021Z,4.38
2023-01-01T07:38:31.801Z,5.07
2023-01-01T07:43:33.688Z,5.35
2023-01-01T07:48:40.068Z,8.05
2023-01-01T07:53:42.160Z,5.50
2023-01-01T07:58:44.252Z,5.35
2023-01-01T08:03:50.906Z,4.30
2023-01-01T08:08:52.709Z,5.13
2023-01-01T08:13:54.804Z,7.20
2023-01-01T08:18:56.593Z,4.60
2023-01-01T08:23:58.325Z,8.40
2023-01-01T08:29:03.072Z,4.78
2023-01-01T08:34:04.825Z,4.78
2023-01-01T08:39:07.381Z,3.47
2023-01-01T08:44:09.064Z,5.50
2023-01-01T08:49:10.898Z,7.57
2023-01-01T08:54:12.601Z,6.57
2023-01-01T08:59:14.279Z,6.80
2023-01-01T09:04:17.207Z,7.45
2023-01-01T09:09:19.891Z,8.02
2023-01-01T09:14:21.954Z,5.20
2023-01-01T09:19:23.664Z,6.32
2023-01-01T09:24:25.523Z,6.32
2023-01-01T09:29:27.359Z,6.15
2023-01-01T09:34:29.133Z,7.80
2023-01-01T09:39:30.878Z,7.80
2023-01-01T09:45:04.275Z,6.75
2023-01-01T09:50:13.387Z,8.70
2023-01-01T09:55:46.998Z,8.18
2023-01-01T10:00:52.642Z,5.45
2023-01-01T10:06:12.710Z,6.18
2023-01-01T10:11:45.565Z,7.18
2023-01-01T10:16:52.227Z,8.80
2023-01-01T10:21:58.067Z,4.13
2023-01-01T10:27:04.039Z,5.68
2023-01-01T10:32:20.218Z,4.07
2023-01-01T10:37:22.549Z,7.55
2023-01-01T10:42:26.308Z,4.00
2023-01-01T10:47:29.903Z,4.93
2023-01-01T10:52:40.630Z,3.60
2023-01-01T10:57:42.993Z,6.78
2023-01-01T11:02:44.833Z,5.45
2023-01-01T11:07:47.772Z,6.45
2023-01-01T11:13:07.004Z,4.45
2023-01-01T11:18:14.957Z,8.43
2023-01-01T11:23:27.909Z,4.78
2023-01-01T11:28:31.685Z,7.30
2023-01-01T11:33:54.403Z,5.25
2023-01-01T11:39:22.322Z,11.30
2023-01-01T11:44:42.177Z,6.63
2023-01-01T11:49:43.988Z,4.88
2023-01-01T11:54:47.629Z,5.57
2023-01-01T11:59:57.368Z,3.70
2023-01-01T12:05:27.055Z,4.38
2023-01-01T12:10:35.111Z,5.97
2023-01-01T12:16:08.900Z,5.47
2023-01-01T12:21:24.165Z,5.28
2023-01-01T12:26:38.465Z,6.95
2023-01-01T12:32:09.394Z,6.82
2023-01-01T12:37:36.206Z,8.48
2023-01-01T12:43:04.202Z,7.68
2023-01-01T12:48:42.889Z,5.18
2023-01-01T12:53:59.940Z,7.88
2023-01-01T12:59:10.600Z,6.63
2023-01-01T13:04:17.340Z,5.40
2023-01-01T13:09:25.114Z,3.78
2023-01-01T13:14:27.191Z,5.50
2023-01-01T13:19:38.005Z,6.25
2023-01-01T13:24:39.750Z,9.45
2023-01-01T13:29:44.937Z,6.45
2023-01-01T13:35:02.982Z,4.32
2023-01-01T13:40:29.273Z,5.00
2023-01-01T13:46:10.976Z,3.33
2023-01-01T13:52:04.619Z,3.65
2023-01-01T13:57:14.601Z,6.68
2023-01-01T14:02:23.551Z,3.15
2023-01-01T14:07:52.290Z,4.00
2023-01-01T14:13:14.159Z,4.38
2023-01-01T14:18:18.116Z,4.97
2023-01-01T14:23:36.624Z,5.35
2023-01-01T14:28:39.504Z,4.07
2023-01-01T14:33:41.519Z,9.13
2023-01-01T14:38:45.291Z,8.98
2023-01-01T14:43:49.585Z,5.50
2023-01-01T14:48:55.154Z,6.05
2023-01-01T14:54:02.083Z,7.25
2023-01-01T14:59:30.640Z,10.90
2023-01-01T15:04:32.354Z,9.05
2023-01-01T15:09:34.213Z,11.27
2023-01-01T15:14:35.847Z,5.15
2023-01-01T15:19:41.240Z,5.82
2023-01-01T15:24:45.982Z,5.50
2023-01-01T15:29:48.769Z,6.63
2023-01-01T15:34:52.599Z,5.05
2023-01-01T15:39:58.003Z,7.65
2023-01-01T15:45:30.310Z,4.25
2023-01-01T15:50:43.922Z,8.70
2023-01-01T15:55:59.689Z,7.40
2023-01-01T16:01:07.281Z,7.47
2023-01-01T16:06:19.312Z,6.75
2023-01-01T16:11:21.021Z,6.82
2023-01-01T16:16:30.314Z,7.07
2023-01-01T16:21:32.964Z,8.75
2023-01-01T16:26:34.581Z,6.43
2023-01-01T16:31:37.167Z,11.00
2023-01-01T16:36:38.835Z,8.05
2023-01-01T16:41:42.461Z,6.80
2023-01-01T16:46:44.469Z,6.10
2023-01-01T16:51:46.169Z,9.43
2023-01-01T16:56:47.813Z,7.35
2023-01-01T17:01:49.687Z,9.48
2023-01-01T17:06:51.398Z,10.45
2023-01-01T17:11:53.009Z,10.05
2023-01-01T17:16:56.333Z,6.82
2023-01-01T17:21:58.105Z,10.52
2023-01-01T17:26:59.767Z,7.82
2023-01-01T17:32:01.407Z,9.05
2023-01-01T17:37:03.056Z,9.88
2023-01-01T17:42:04.777Z,8.25
2023-01-01T17:47:06.423Z,9.20
2023-01-01T17:52:08.177Z,8.68
2023-01-01T17:57:09.858Z,8.13
2023-01-01T18:02:13.235Z,8.05
2023-01-01T18:07:14.973Z,9.50
2023-01-01T18:12:16.659Z,8.55
2023-01-01T18:17:18.421Z,10.38
2023-01-01T18:22:20.175Z,8.70
2023-01-01T18:27:21.857Z,9.95
2023-01-01T18:32:23.528Z,9.05
2023-01-01T18:37:25.171Z,10.68
2023-01-01T18:42:39.138Z,11.52
2023-01-01T18:47:40.769Z,12.50
2023-01-01T18:52:42.655Z,11.73
2023-01-01T18:57:49.266Z,13.50
2023-01-01T19:03:01.507Z,11.30
2023-01-01T19:08:09.468Z,14.02
2023-01-01T19:13:31.915Z,9.93
2023-01-01T19:18:34.536Z,10.00
2023-01-01T19:23:38.913Z,10.68
2023-01-01T19:28:46.639Z,10.48
2023-01-01T19:33:48.447Z,9.25
2023-01-01T19:38:50.158Z,11.95
2023-01-01T19:43:51.991Z,11.23
2023-01-01T19:48:53.828Z,13.35
2023-01-01T19:53:55.791Z,13.05
2023-01-01T19:58:57.436Z,14.02
2023-01-01T20:03:59.446Z,10.18
2023-01-01T20:09:01.402Z,13.40
2023-01-01T20:14:03.734Z,11.25
2023-01-01T20:19:05.441Z,9.55
2023-01-01T20:24:07.122Z,9.07
2023-01-01T20:29:20.675Z,13.23
2023-01-01T20:34:23.037Z,10.98
2023-01-01T20:39:25.576Z,14.82
2023-01-01T20:44:27.630Z,20.05
2023-01-01T20:49:29.304Z,15.68
2023-01-01T20:54:31.075Z,14.88
2023-01-01T20:59:37.773Z,8.45
2023-01-01T21:04:40.625Z,12.68
2023-01-01T21:09:42.660Z,10.93
2023-01-01T21:14:44.423Z,8.35
2023-01-01T21:19:46.141Z,14.70
2023-01-01T21:24:53.711Z,8.60
2023-01-01T21:29:57.692Z,12.65
2023-01-01T21:35:00.437Z,7.38
2023-01-01T21:40:21.588Z,8.98
2023-01-01T21:45:31.785Z,14.05
2023-01-01T21:50:33.673Z,12.63
2023-01-01T21:55:54.821Z,9.63
2023-01-01T22:00:56.504Z,9.02
2023-01-01T22:05:59.552Z,10.52
2023-01-01T22:11:01.670Z,13.10
2023-01-01T22:16:03.400Z,12.40
2023-01-01T22:21:05.219Z,8.88
2023-01-01T22:26:27.603Z,10.55
2023-01-01T22:31:33.161Z,8.23
2023-01-01T22:36:36.333Z,11.43
2023-01-01T22:41:38.057Z,8.50
2023-01-01T22:46:41.305Z,10.25
2023-01-01T22:51:44.556Z,8.95
2023-01-01T22:56:46.313Z,11.57
2023-01-01T23:01:48.034Z,11.40
2023-01-01T23:06:49.808Z,10.88
2023-01-01T23:11:54.411Z,12.48
2023-01-01T23:16:56.220Z,9.50
2023-01-01T23:22:00.169Z,8.73
2023-01-01T23:27:03.350Z,8.88
2023-01-01T23:32:05.334Z,6.85
2023-01-01T23:37:07.237Z,9.77
2023-01-01T23:42:08.925Z,11.43
2023-01-01T23:47:10.945Z,10.25
2023-01-01T23:52:12.780Z,12.00
2023-01-01T23:57:14.653Z,15.02
